Time;durP1;ratioP1;P1;durP2;ratioP2;P2;SDS_P1;SDS_P2;PMS_P1;PMS_P2;Temp;Humidity;BMP_temperature;BMP_pressure;BME280_temperature;BME280_humidity;BME280_pressure;Samples;Min_cycle;Max_cycle;Signal;HPM_P1;HPM_P2
2021/03/29 00:01:34;;;;;;;8.60;3.00;;;9.50;86.60;;;;;;5086538;28;20032;-71
2021/03/29 00:04:00;;;;;;;9.00;3.37;;;9.60;86.40;;;;;;5102114;28;20044;-71
2021/03/29 00:06:30;;;;;;;9.83;3.70;;;9.60;86.00;;;;;;5104941;28;20111;-71
2021/03/29 00:08:57;;;;;;;7.78;3.10;;;9.60;86.30;;;;;;5083890;28;20110;-71
2021/03/29 00:11:24;;;;;;;13.40;4.47;;;9.60;86.20;;;;;;5102167;28;20108;-71
2021/03/29 00:13:53;;;;;;;9.57;3.83;;;9.70;86.50;;;;;;5080078;28;20070;-71
2021/03/29 00:16:21;;;;;;;8.10;3.33;;;9.60;86.40;;;;;;5105940;28;20123;-71
2021/03/29 00:18:48;;;;;;;9.60;3.80;;;9.60;86.20;;;;;;5065984;28;20621;-71
2021/03/29 00:21:15;;;;;;;10.70;3.97;;;9.60;86.20;;;;;;5084558;28;20497;-72
2021/03/29 00:23:44;;;;;;;10.40;3.67;;;9.60;86.30;;;;;;5084322;28;20048;-71
2021/03/29 00:26:11;;;;;;;10.80;3.53;;;9.50;86.10;;;;;;5103276;28;20113;-72
2021/03/29 00:28:37;;;;;;;11.10;3.43;;;9.50;86.20;;;;;;5055256;28;20129;-72
2021/03/29 00:31:06;;;;;;;12.07;4.20;;;9.60;86.30;;;;;;5081975;28;20056;-71
2021/03/29 00:33:34;;;;;;;9.60;3.33;;;9.40;86.50;;;;;;5102372;28;20099;-72
2021/03/29 00:36:00;;;;;;;8.73;3.20;;;9.40;86.60;;;;;;5101437;28;20048;-72
2021/03/29 00:38:27;;;;;;;8.87;3.67;;;9.40;86.90;;;;;;5103951;27;20096;-72
2021/03/29 00:41:00;;;;;;;14.10;3.67;;;9.40;87.00;;;;;;5084526;28;20044;-72
2021/03/29 00:43:33;;;;;;;9.10;4.23;;;9.40;87.20;;;;;;5080958;28;20035;-72
2021/03/29 00:46:01;;;;;;;12.67;3.90;;;9.40;87.30;;;;;;5085505;28;20478;-70
2021/03/29 00:48:29;;;;;;;9.87;3.53;;;9.50;87.30;;;;;;5058871;28;20053;-71
2021/03/29 00:51:19;;;;;;;12.10;4.27;;;9.50;87.30;;;;;;5066208;28;20029;-71
2021/03/29 00:53:48;;;;;;;7.65;3.80;;;9.50;86.90;;;;;;5061690;28;20049;-71
2021/03/29 00:56:15;;;;;;;12.03;3.50;;;9.60;86.70;;;;;;5069131;28;20043;-72
2021/03/29 00:58:44;;;;;;;11.50;3.57;;;9.60;86.20;;;;;;5063183;28;20044;-71
2021/03/29 01:01:16;;;;;;;11.87;3.90;;;9.70;85.90;;;;;;5065946;28;20072;-72
2021/03/29 01:03:48;;;;;;;11.67;3.90;;;9.70;85.80;;;;;;5074292;28;20039;-70
2021/03/29 01:06:17;;;;;;;11.47;3.67;;;9.60;86.10;;;;;;5061703;28;20051;-70
2021/03/29 01:08:52;;;;;;;10.20;3.70;;;9.60;86.10;;;;;;5064290;28;20043;-71
2021/03/29 01:11:25;;;;;;;7.57;3.17;;;9.60;86.00;;;;;;5063990;28;20190;-71
2021/03/29 01:14:08;;;;;;;7.63;2.90;;;9.50;86.20;;;;;;5066197;28;20078;-71
2021/03/29 01:16:39;;;;;;;12.40;4.23;;;9.60;85.90;;;;;;5059265;28;20113;-72
2021/03/29 01:19:20;;;;;;;10.67;4.13;;;9.60;85.60;;;;;;5064044;28;20041;-71
2021/03/29 01:22:07;;;;;;;13.20;4.67;;;9.70;86.00;;;;;;5054095;28;20075;-71
2021/03/29 01:24:48;;;;;;;8.17;3.20;;;9.70;85.80;;;;;;5065861;28;20032;-71
2021/03/29 01:27:31;;;;;;;13.03;3.77;;;9.70;85.80;;;;;;5059892;28;20085;-71
2021/03/29 01:29:58;;;;;;;9.90;3.97;;;9.70;85.40;;;;;;5068137;28;20064;-72
2021/03/29 01:32:25;;;;;;;8.50;3.30;;;9.70;85.60;;;;;;5058724;28;20047;-72
2021/03/29 01:34:53;;;;;;;11.73;3.57;;;9.70;85.70;;;;;;5060132;28;20037;-71
2021/03/29 01:37:20;;;;;;;11.53;3.83;;;9.70;85.40;;;;;;5045474;28;20036;-71
2021/03/29 01:39:51;;;;;;;6.87;3.27;;;9.80;85.30;;;;;;5068149;28;20127;-72
2021/03/29 01:42:22;;;;;;;8.53;3.10;;;9.80;84.80;;;;;;5063135;28;20386;-72
2021/03/29 01:44:49;;;;;;;10.57;3.08;;;9.90;84.50;;;;;;5066433;28;20487;-72
2021/03/29 01:47:16;;;;;;;10.00;3.43;;;9.90;84.50;;;;;;5069760;28;20040;-71
2021/03/29 01:49:43;;;;;;;12.80;3.63;;;9.90;84.50;;;;;;5088756;28;20051;-72
2021/03/29 01:52:09;;;;;;;11.43;3.30;;;9.90;84.10;;;;;;5102102;28;20118;-72
2021/03/29 01:54:37;;;;;;;8.87;3.63;;;9.90;84.00;;;;;;5082758;28;20478;-73
2021/03/29 01:57:08;;;;;;;8.77;3.60;;;9.90;83.90;;;;;;5081627;28;20044;-72
2021/03/29 01:59:35;;;;;;;7.80;3.17;;;9.90;83.90;;;;;;5080941;28;20052;-71
2021/03/29 02:02:02;;;;;;;8.57;3.30;;;9.90;83.70;;;;;;5061506;28;20432;-72
2021/03/29 02:04:29;;;;;;;9.60;3.57;;;9.90;83.70;;;;;;5083034;28;20047;-71
2021/03/29 02:06:56;;;;;;;10.30;3.40;;;9.90;83.70;;;;;;5081015;28;20089;-72
2021/03/29 02:09:24;;;;;;;9.67;3.73;;;9.90;83.50;;;;;;5082485;28;20040;-71
2021/03/29 02:11:50;;;;;;;10.10;4.07;;;9.90;83.70;;;;;;5076248;28;20055;-71
2021/03/29 02:14:18;;;;;;;14.20;4.30;;;10.00;83.60;;;;;;5099822;28;20039;-71
2021/03/29 02:16:46;;;;;;;7.73;3.60;;;10.00;83.30;;;;;;5096989;28;20039;-71
2021/03/29 02:19:12;;;;;;;12.07;4.40;;;10.00;83.20;;;;;;5085487;28;20066;-71
2021/03/29 02:21:42;;;;;;;7.30;3.57;;;10.00;83.10;;;;;;5103936;28;20035;-70
2021/03/29 02:24:10;;;;;;;13.80;4.25;;;10.00;83.10;;;;;;5077209;28;20042;-72
2021/03/29 02:26:39;;;;;;;9.47;4.17;;;10.00;83.10;;;;;;5094473;28;20111;-71
2021/03/29 02:29:05;;;;;;;9.27;3.73;;;10.00;83.20;;;;;;5106971;28;20547;-71
2021/03/29 02:31:32;;;;;;;13.10;3.70;;;10.00;82.80;;;;;;5071543;28;20043;-70
2021/03/29 02:34:00;;;;;;;11.87;4.70;;;10.00;82.70;;;;;;5104196;28;20092;-70
2021/03/29 02:36:27;;;;;;;10.23;3.30;;;10.00;82.80;;;;;;5091715;28;20067;-71
2021/03/29 02:38:54;;;;;;;14.33;4.60;;;10.00;82.80;;;;;;5082327;28;20109;-71
2021/03/29 02:41:26;;;;;;;12.63;4.50;;;10.00;83.10;;;;;;5079717;28;20044;-70
2021/03/29 02:43:56;;;;;;;10.13;4.67;;;10.00;82.70;;;;;;5104811;28;20529;-72
2021/03/29 02:46:27;;;;;;;;;;;10.00;82.50;;;;;;5099815;28;20402;-71
2021/03/29 02:48:54;;;;;;;10.38;4.30;;;10.00;82.80;;;;;;5101056;28;20431;-71
2021/03/29 02:51:33;;;;;;;9.63;4.10;;;10.00;82.60;;;;;;5068478;28;20101;-71
2021/03/29 02:54:04;;;;;;;11.73;4.97;;;10.00;82.80;;;;;;5084186;28;20139;-71
2021/03/29 02:56:37;;;;;;;11.43;4.63;;;10.00;82.90;;;;;;5079214;28;20032;-71
2021/03/29 02:59:07;;;;;;;10.80;4.70;;;10.00;83.00;;;;;;5098206;28;20514;-70
2021/03/29 03:01:35;;;;;;;7.65;3.50;;;10.00;83.80;;;;;;5068080;28;20119;-71
2021/03/29 03:04:01;;;;;;;11.60;4.07;;;10.00;82.60;;;;;;5085694;28;20050;-72
2021/03/29 03:06:31;;;;;;;12.38;4.70;;;10.00;82.70;;;;;;5103603;28;20063;-71
2021/03/29 03:09:01;;;;;;;13.00;4.73;;;10.00;82.60;;;;;;5085165;28;20070;-71
2021/03/29 03:11:27;;;;;;;7.93;3.85;;;10.00;82.80;;;;;;5065913;28;20116;-72
2021/03/29 03:13:54;;;;;;;11.97;4.67;;;10.00;82.60;;;;;;5098017;28;20040;-71
2021/03/29 03:16:20;;;;;;;13.50;4.47;;;10.00;82.70;;;;;;5061543;28;20116;-72
2021/03/29 03:18:48;;;;;;;12.70;4.93;;;9.90;82.50;;;;;;5065827;28;20537;-79
2021/03/29 03:21:21;;;;;;;11.73;5.37;;;10.00;82.70;;;;;;5081395;28;20517;-79
2021/03/29 03:23:57;;;;;;;11.73;5.67;;;9.90;83.10;;;;;;5097717;28;20036;-78
2021/03/29 03:26:25;;;;;;;10.47;5.13;;;9.80;83.10;;;;;;5094021;28;20638;-78
2021/03/29 03:28:51;;;;;;;13.30;6.47;;;9.80;83.20;;;;;;5081228;28;20040;-78
2021/03/29 03:31:21;;;;;;;9.32;4.40;;;9.70;83.60;;;;;;5078767;28;20099;-79
2021/03/29 03:33:47;;;;;;;9.83;6.00;;;9.70;83.60;;;;;;5085482;28;20033;-78
2021/03/29 03:36:16;;;;;;;13.27;5.33;;;9.70;83.60;;;;;;5100938;28;20039;-79
2021/03/29 03:38:49;;;;;;;11.07;5.78;;;9.70;83.70;;;;;;5085784;28;20505;-78
2021/03/29 03:41:19;;;;;;;10.43;5.35;;;9.60;84.10;;;;;;5104828;28;20468;-78
2021/03/29 03:43:55;;;;;;;11.55;5.38;;;9.60;84.10;;;;;;5104215;28;20040;-79
2021/03/29 03:46:35;;;;;;;12.93;6.80;;;9.60;84.40;;;;;;5084945;28;20142;-78
2021/03/29 03:49:05;;;;;;;10.97;6.33;;;9.50;84.30;;;;;;5099225;28;20054;-79
2021/03/29 03:51:33;;;;;;;11.63;5.23;;;9.60;84.40;;;;;;5102415;28;20050;-78
2021/03/29 03:54:00;;;;;;;12.73;5.87;;;9.50;84.30;;;;;;5104038;28;20100;-79
2021/03/29 03:56:34;;;;;;;10.60;5.50;;;9.60;84.30;;;;;;5084826;28;20116;-78
2021/03/29 03:59:03;;;;;;;13.87;6.97;;;9.50;84.50;;;;;;5101289;28;20035;-79
2021/03/29 04:01:45;;;;;;;13.23;6.63;;;9.50;84.60;;;;;;5079991;28;20040;-79
2021/03/29 04:04:12;;;;;;;13.83;6.03;;;9.50;84.70;;;;;;5106354;28;20048;-79
2021/03/29 04:06:38;;;;;;;11.97;6.70;;;9.40;85.00;;;;;;5054676;28;20032;-79
2021/03/29 04:09:03;;;;;;;14.10;7.57;;;9.40;85.20;;;;;;5068169;28;20047;-70
2021/03/29 04:11:29;;;;;;;13.67;7.10;;;9.40;85.40;;;;;;5084110;28;20036;-72
2021/03/29 04:13:57;;;;;;;15.20;8.30;;;9.30;85.50;;;;;;5079666;28;20067;-71
2021/03/29 04:16:23;;;;;;;15.40;6.93;;;9.30;85.70;;;;;;5096353;28;20115;-78
2021/03/29 04:18:49;;;;;;;12.33;6.77;;;9.30;85.90;;;;;;5087727;28;20112;-78
2021/03/29 04:21:15;;;;;;;10.97;5.27;;;9.30;86.00;;;;;;5076342;28;20047;-78
2021/03/29 04:23:40;;;;;;;15.77;6.77;;;9.30;86.10;;;;;;5085938;28;20101;-79
2021/03/29 04:26:06;;;;;;;11.87;6.30;;;9.40;86.00;;;;;;5065820;28;20036;-80
2021/03/29 04:28:33;;;;;;;16.17;6.97;;;9.40;86.00;;;;;;5053510;28;20346;-78
2021/03/29 04:30:59;;;;;;;14.40;7.27;;;9.40;85.90;;;;;;5100602;28;20119;-79
2021/03/29 04:33:25;;;;;;;13.80;6.50;;;9.40;85.90;;;;;;5068310;28;20036;-79
2021/03/29 04:35:51;;;;;;;17.90;8.23;;;9.40;86.00;;;;;;5087321;28;20043;-79
2021/03/29 04:38:17;;;;;;;16.27;7.07;;;9.40;86.10;;;;;;5084109;28;20032;-78
2021/03/29 04:40:44;;;;;;;13.60;7.00;;;9.30;86.10;;;;;;5084538;28;20413;-79
2021/03/29 04:43:10;;;;;;;17.10;7.53;;;9.30;86.30;;;;;;5085457;28;20040;-78
2021/03/29 04:45:40;;;;;;;10.33;5.53;;;9.30;86.60;;;;;;5078817;28;20036;-78
2021/03/29 04:48:06;;;;;;;12.43;6.73;;;9.30;86.70;;;;;;5071192;28;20082;-79
2021/03/29 04:50:32;;;;;;;14.13;6.93;;;9.20;86.80;;;;;;5079889;28;20316;-79
2021/03/29 04:53:00;;;;;;;15.70;6.43;;;9.20;87.10;;;;;;5087366;28;20032;-79
2021/03/29 04:55:27;;;;;;;13.10;5.73;;;9.20;87.40;;;;;;5084904;28;20139;-79
2021/03/29 04:57:53;;;;;;;13.63;6.50;;;9.20;87.50;;;;;;5067385;28;20032;-78
2021/03/29 05:00:22;;;;;;;13.43;6.47;;;9.20;87.60;;;;;;5080407;28;20047;-79
2021/03/29 05:02:48;;;;;;;15.80;6.27;;;9.10;87.50;;;;;;5103017;28;20118;-71
2021/03/29 05:05:14;;;;;;;11.77;6.97;;;9.10;87.50;;;;;;5094072;27;20051;-72
2021/03/29 05:07:40;;;;;;;13.37;5.93;;;9.20;87.50;;;;;;5081910;28;21176;-71
2021/03/29 05:10:16;;;;;;;14.43;6.50;;;9.10;87.40;;;;;;5102299;28;20042;-71
2021/03/29 05:12:45;;;;;;;15.50;5.90;;;9.10;87.50;;;;;;5094990;28;20220;-72
2021/03/29 05:15:11;;;;;;;13.10;6.17;;;9.20;87.60;;;;;;5079461;28;20149;-71
2021/03/29 05:17:41;;;;;;;15.18;6.53;;;9.10;87.80;;;;;;5082892;28;20409;-72
2021/03/29 05:20:07;;;;;;;15.33;6.30;;;9.00;87.90;;;;;;5081555;27;20050;-71
2021/03/29 05:22:33;;;;;;;14.63;5.60;;;9.00;87.90;;;;;;5102819;28;20042;-71
2021/03/29 05:25:00;;;;;;;11.03;5.77;;;9.00;88.10;;;;;;5060069;28;20054;-71
2021/03/29 05:27:25;;;;;;;12.13;5.37;;;9.10;88.10;;;;;;5080107;28;20134;-71
2021/03/29 05:29:55;;;;;;;12.77;6.13;;;9.10;88.00;;;;;;5083678;28;20170;-71
2021/03/29 05:32:23;;;;;;;17.83;6.83;;;9.00;88.00;;;;;;5102256;28;20046;-72
2021/03/29 05:34:50;;;;;;;15.17;6.03;;;9.00;88.10;;;;;;5080609;28;20036;-72
2021/03/29 05:37:21;;;;;;;12.03;5.63;;;9.00;88.20;;;;;;5098827;27;20032;-71
2021/03/29 05:39:50;;;;;;;10.23;5.23;;;9.00;88.20;;;;;;5066738;28;20055;-72
2021/03/29 05:42:21;;;;;;;11.67;5.40;;;9.10;88.40;;;;;;5103536;28;20111;-71
2021/03/29 05:44:50;;;;;;;16.88;5.93;;;9.10;88.10;;;;;;5104015;28;20778;-70
2021/03/29 05:47:17;;;;;;;11.90;5.10;;;9.10;88.10;;;;;;5101525;28;20038;-71
2021/03/29 05:49:46;;;;;;;9.90;4.87;;;9.20;88.00;;;;;;5045370;28;20147;-73
2021/03/29 05:52:15;;;;;;;14.07;6.57;;;9.20;88.10;;;;;;5082320;28;20138;-71
2021/03/29 05:54:40;;;;;;;12.50;6.63;;;9.20;88.00;;;;;;5101536;28;20039;-71
2021/03/29 05:57:10;;;;;;;10.27;5.13;;;9.20;88.10;;;;;;5068825;28;20604;-71
2021/03/29 05:59:41;;;;;;;14.67;5.67;;;9.20;88.10;;;;;;5083702;28;20047;-71
2021/03/29 06:02:32;;;;;;;11.23;5.67;;;9.20;88.00;;;;;;5060097;28;20066;-71
2021/03/29 06:04:59;;;;;;;13.55;6.07;;;9.20;88.80;;;;;;5097641;28;20059;-71
2021/03/29 06:07:27;;;;;;;13.53;6.23;;;9.30;88.10;;;;;;5093085;28;20032;-71
2021/03/29 06:09:55;;;;;;;12.43;5.07;;;9.30;88.10;;;;;;5093675;28;20043;-71
2021/03/29 06:12:23;;;;;;;14.77;5.80;;;9.30;88.00;;;;;;5093654;28;20052;-72
2021/03/29 06:15:03;;;;;;;12.47;5.53;;;9.30;88.10;;;;;;5091462;28;20043;-72
2021/03/29 06:17:29;;;;;;;12.30;6.50;;;9.40;88.20;;;;;;5090945;28;20549;-71
2021/03/29 06:20:00;;;;;;;13.43;5.67;;;9.40;88.00;;;;;;5102256;28;20138;-71
2021/03/29 06:22:31;;;;;;;9.23;4.45;;;9.40;88.00;;;;;;5094520;28;20125;-72
2021/03/29 06:25:06;;;;;;;12.07;4.67;;;9.50;87.90;;;;;;5095930;28;20032;-71
2021/03/29 06:27:42;;;;;;;14.43;5.47;;;9.50;87.60;;;;;;5090887;28;20490;-71
2021/03/29 06:30:11;;;;;;;13.50;5.10;;;9.50;87.60;;;;;;5097552;28;20043;-71
2021/03/29 06:32:38;;;;;;;12.95;6.22;;;9.60;87.30;;;;;;5096701;28;20047;-71
2021/03/29 06:35:22;;;;;;;15.80;5.53;;;9.60;87.60;;;;;;5084004;28;20035;-71
2021/03/29 06:37:48;;;;;;;11.30;6.23;;;9.60;87.30;;;;;;5095455;28;20047;-71
2021/03/29 06:40:15;;;;;;;15.43;5.43;;;9.70;87.50;;;;;;5098716;28;20039;-72
2021/03/29 06:42:41;;;;;;;11.93;4.30;;;9.70;87.50;;;;;;5079901;28;20123;-71
2021/03/29 06:45:12;;;;;;;12.80;5.07;;;9.80;87.40;;;;;;5058020;28;20581;-79
2021/03/29 06:47:42;;;;;;;11.90;5.13;;;9.80;87.30;;;;;;5094957;28;20071;-78
2021/03/29 06:50:25;;;;;;;14.33;5.27;;;9.90;87.30;;;;;;5073824;28;21290;-78
2021/03/29 06:52:51;;;;;;;15.50;5.70;;;9.90;87.40;;;;;;5086977;28;20051;-80
2021/03/29 06:55:26;;;;;;;12.50;4.63;;;9.90;87.30;;;;;;5099081;28;20043;-78
2021/03/29 06:58:25;;;;;;;9.50;4.63;;;10.00;86.90;;;;;;5085279;28;20440;-79
2021/03/29 07:00:54;;;;;;;13.02;5.25;;;10.10;87.10;;;;;;5061288;28;20040;-78
2021/03/29 07:03:20;;;;;;;10.50;4.67;;;10.10;87.00;;;;;;5069434;28;20051;-79
2021/03/29 07:05:51;;;;;;;12.67;4.73;;;10.20;86.80;;;;;;5090794;28;20046;-78
2021/03/29 07:08:18;;;;;;;;;;;10.30;86.70;;;;;;5091686;28;20040;-72
2021/03/29 07:10:47;;;;;;;12.70;4.83;;;10.30;86.10;;;;;;5094362;28;19931;-72
2021/03/29 07:13:14;;;;;;;13.13;4.77;;;10.40;86.30;;;;;;5099414;28;20036;-71
2021/03/29 07:15:41;;;;;;;12.63;4.90;;;10.50;86.20;;;;;;5097992;28;20098;-71
2021/03/29 07:18:07;;;;;;;16.97;6.00;;;10.60;86.30;;;;;;5118674;27;20101;-71
2021/03/29 07:20:34;;;;;;;15.40;5.00;;;10.70;86.10;;;;;;5084296;28;20122;-71
2021/03/29 07:23:00;;;;;;;12.73;5.73;;;10.70;85.10;;;;;;5088441;28;20128;-73
2021/03/29 07:25:36;;;;;;;13.65;5.45;;;10.80;85.10;;;;;;5067541;28;20032;-71
2021/03/29 07:28:09;;;;;;;13.57;6.22;;;10.80;84.50;;;;;;5092979;28;20036;-72
2021/03/29 07:30:52;;;;;;;14.88;6.38;;;10.90;85.30;;;;;;5088435;28;20039;-71
2021/03/29 07:33:19;;;;;;;17.60;6.05;;;11.00;85.00;;;;;;5086482;28;20032;-79
2021/03/29 07:35:50;;;;;;;14.85;4.47;;;11.00;84.80;;;;;;5101025;28;20055;-79
2021/03/29 07:38:21;;;;;;;15.27;4.70;;;11.10;84.10;;;;;;5076960;28;20104;-79
2021/03/29 07:40:50;;;;;;;16.92;5.47;;;11.20;84.00;;;;;;5088211;28;20180;-79
2021/03/29 07:43:26;;;;;;;7.80;3.70;;;11.20;84.70;;;;;;5084946;28;20114;-79
2021/03/29 07:46:02;;;;;;;14.77;4.83;;;11.30;83.70;;;;;;5097657;28;20131;-79
2021/03/29 07:48:44;;;;;;;10.70;4.05;;;11.40;83.30;;;;;;5083199;28;20067;-79
2021/03/29 07:51:11;;;;;;;6.85;3.22;;;11.40;84.00;;;;;;5098202;28;20040;-80
2021/03/29 07:53:38;;;;;;;12.48;3.58;;;11.50;83.30;;;;;;5094534;28;20119;-80
2021/03/29 07:56:04;;;;;;;12.52;4.18;;;11.50;83.10;;;;;;5099528;28;20050;-80
2021/03/29 07:58:42;;;;;;;14.85;4.20;;;11.50;82.10;;;;;;5096131;28;20395;-79
2021/03/29 08:01:09;;;;;;;8.95;3.38;;;11.60;82.80;;;;;;5095941;28;20043;-72
2021/03/29 08:03:37;;;;;;;11.77;4.50;;;11.60;82.20;;;;;;5066951;28;20475;-73
2021/03/29 08:06:03;;;;;;;10.23;4.35;;;11.70;82.50;;;;;;5090592;28;20084;-72
2021/03/29 08:08:33;;;;;;;14.38;3.85;;;11.80;82.80;;;;;;5101558;28;20036;-72
2021/03/29 08:11:20;;;;;;;11.75;3.95;;;11.80;82.40;;;;;;5096364;28;20039;-73
2021/03/29 08:13:58;;;;;;;13.82;3.58;;;11.90;82.50;;;;;;5102927;27;20044;-73
2021/03/29 08:16:28;;;;;;;13.10;4.38;;;12.10;81.90;;;;;;5077341;28;20036;-73
2021/03/29 08:19:18;;;;;;;12.35;4.80;;;12.10;81.40;;;;;;5074516;28;20044;-72
2021/03/29 08:21:59;;;;;;;11.73;4.13;;;12.20;82.60;;;;;;5081312;28;20043;-74
2021/03/29 08:24:29;;;;;;;;;;;12.20;81.40;;;;;;5068691;28;20054;-76
2021/03/29 08:26:59;;;;;;;15.00;5.00;;;12.30;80.90;;;;;;5097469;28;19930;-79
2021/03/29 08:29:31;;;;;;;10.63;4.18;;;12.30;82.10;;;;;;5078772;28;20058;-73
2021/03/29 08:32:16;;;;;;;10.77;4.15;;;12.40;82.00;;;;;;5102030;28;20092;-74
2021/03/29 08:34:57;;;;;;;8.65;3.70;;;12.50;79.90;;;;;;5098118;28;20040;-75
2021/03/29 08:37:23;;;;;;;11.85;4.25;;;12.50;80.30;;;;;;5100592;28;20043;-73
2021/03/29 08:39:51;;;;;;;11.68;3.58;;;12.50;80.10;;;;;;5090677;28;20168;-72
2021/03/29 08:42:20;;;;;;;13.90;5.65;;;12.60;80.70;;;;;;5096571;28;20494;-72
2021/03/29 08:44:49;;;;;;;12.05;5.32;;;12.70;81.40;;;;;;5090645;28;20119;-72
2021/03/29 08:47:18;;;;;;;9.40;4.10;;;12.80;80.90;;;;;;5095554;28;20063;-72
2021/03/29 08:49:48;;;;;;;12.85;4.70;;;12.80;80.50;;;;;;5086714;28;20073;-73
2021/03/29 08:52:16;;;;;;;11.45;4.05;;;12.90;82.20;;;;;;5093282;28;20058;-72
2021/03/29 08:54:57;;;;;;;13.55;3.85;;;13.00;81.50;;;;;;5089892;28;20112;-73
2021/03/29 08:57:26;;;;;;;14.63;4.60;;;13.00;81.20;;;;;;5100870;28;20036;-73
2021/03/29 08:59:58;;;;;;;8.83;4.30;;;13.00;82.50;;;;;;5088991;28;20516;-80
2021/03/29 09:02:25;;;;;;;11.15;4.93;;;13.00;80.40;;;;;;5094194;28;20097;-79
2021/03/29 09:04:56;;;;;;;9.35;4.03;;;12.90;79.40;;;;;;5073383;28;20154;-81
2021/03/29 09:07:31;;;;;;;13.43;4.40;;;12.90;81.50;;;;;;5087657;28;20566;-72
2021/03/29 09:09:58;;;;;;;13.40;4.55;;;13.10;82.30;;;;;;5101750;28;20028;-73
2021/03/29 09:12:31;;;;;;;11.73;4.40;;;13.20;82.80;;;;;;5070622;28;20040;-73
2021/03/29 09:14:57;;;;;;;9.25;3.67;;;13.40;80.60;;;;;;5100094;28;20044;-73
2021/03/29 09:17:31;;;;;;;12.48;3.58;;;13.30;80.20;;;;;;5108499;28;20486;-81
2021/03/29 09:19:58;;;;;;;14.50;5.28;;;13.40;80.60;;;;;;5082842;28;20039;-72
2021/03/29 09:22:30;;;;;;;15.90;5.03;;;13.40;82.20;;;;;;5107070;27;20141;-73
2021/03/29 09:24:57;;;;;;;12.07;4.50;;;13.60;82.00;;;;;;5105034;28;20051;-73
2021/03/29 09:27:30;;;;;;;15.32;5.10;;;13.60;80.00;;;;;;5078043;28;20040;-72
2021/03/29 09:29:59;;;;;;;15.95;4.80;;;13.60;81.00;;;;;;5104202;28;20039;-73
2021/03/29 09:32:35;;;;;;;14.32;4.68;;;13.70;79.00;;;;;;5113174;27;20044;-73
2021/03/29 09:35:01;;;;;;;12.02;4.50;;;13.70;79.10;;;;;;5101492;28;20043;-73
2021/03/29 09:37:29;;;;;;;17.15;4.65;;;13.80;79.70;;;;;;5096664;28;20114;-73
2021/03/29 09:40:00;;;;;;;13.32;4.43;;;13.80;80.50;;;;;;5092218;28;20047;-73
2021/03/29 09:42:36;;;;;;;10.93;4.47;;;13.80;78.80;;;;;;5098165;28;20039;-73
2021/03/29 09:45:04;;;;;;;13.63;4.47;;;13.70;78.70;;;;;;5091873;28;20028;-73
2021/03/29 09:47:35;;;;;;;13.27;5.35;;;13.80;78.70;;;;;;5063615;28;20129;-74
2021/03/29 09:50:02;;;;;;;8.00;3.60;;;13.90;80.80;;;;;;5069331;28;20071;-75
2021/03/29 09:52:35;;;;;;;16.02;5.32;;;13.90;79.60;;;;;;5098744;28;20042;-72
2021/03/29 09:55:01;;;;;;;15.85;4.28;;;13.80;79.00;;;;;;5071365;28;20043;-73
2021/03/29 09:57:47;;;;;;;9.88;4.30;;;13.80;81.60;;;;;;5068973;28;20054;-73
2021/03/29 10:00:18;;;;;;;13.93;5.38;;;13.90;80.20;;;;;;5078413;28;20032;-73
2021/03/29 10:02:47;;;;;;;12.90;5.05;;;14.00;80.00;;;;;;5049563;28;20043;-72
2021/03/29 10:05:13;;;;;;;18.23;6.38;;;14.00;79.10;;;;;;5096992;28;20039;-72
2021/03/29 10:07:50;;;;;;;13.18;4.65;;;14.10;79.90;;;;;;5081011;28;20051;-73
2021/03/29 10:10:32;;;;;;;14.65;5.88;;;14.10;80.30;;;;;;5064421;28;20048;-72
2021/03/29 10:13:12;;;;;;;12.10;4.75;;;14.20;80.10;;;;;;5082723;28;20131;-73
2021/03/29 10:15:39;;;;;;;;;;;14.20;80.20;;;;;;5069042;28;20063;-72
2021/03/29 10:18:13;;;;;;;14.73;5.22;;;14.20;80.80;;;;;;5094894;28;19927;-72
2021/03/29 10:20:44;;;;;;;20.15;5.82;;;14.20;79.40;;;;;;5095638;28;20039;-73
2021/03/29 10:23:23;;;;;;;12.98;5.53;;;14.30;81.20;;;;;;5095446;28;20031;-72
2021/03/29 10:26:16;;;;;;;15.73;6.10;;;14.40;80.40;;;;;;5091058;28;20070;-71
